sensor_id;sensor_type;location;lat;lon;timestamp;P1;durP1;ratioP1;P2;durP2;ratioP2
28836;SDS011;50669;50.982;11.022;2023-01-29T00:00:11;17.10;;;10.27;;
28836;SDS011;50669;50.982;11.022;2023-01-29T00:02:37;19.17;;;10.00;;
28836;SDS011;50669;50.982;11.022;2023-01-29T00:05:05;19.38;;;9.63;;
28836;SDS011;50669;50.982;11.022;2023-01-29T00:07:31;20.23;;;9.77;;
28836;SDS011;50669;50.982;11.022;2023-01-29T00:09:57;17.33;;;10.00;;
28836;SDS011;50669;50.982;11.022;2023-01-29T00:12:25;17.60;;;9.68;;
28836;SDS011;50669;50.982;11.022;2023-01-29T00:14:52;20.20;;;10.30;;
28836;SDS011;50669;50.982;11.022;2023-01-29T00:17:18;21.75;;;9.82;;
28836;SDS011;50669;50.982;11.022;2023-01-29T00:19:44;20.70;;;10.77;;
28836;SDS011;50669;50.982;11.022;2023-01-29T00:22:12;21.00;;;10.32;;
28836;SDS011;50669;50.982;11.022;2023-01-29T00:24:37;23.20;;;11.05;;
28836;SDS011;50669;50.982;11.022;2023-01-29T00:27:06;21.25;;;10.82;;
28836;SDS011;50669;50.982;11.022;2023-01-29T00:29:31;20.92;;;11.15;;
28836;SDS011;50669;50.982;11.022;2023-01-29T00:31:59;21.33;;;10.70;;
28836;SDS011;50669;50.982;11.022;2023-01-29T00:34:25;22.55;;;11.32;;
28836;SDS011;50669;50.982;11.022;2023-01-29T00:36:53;25.08;;;12.05;;
28836;SDS011;50669;50.982;11.022;2023-01-29T00:39:29;21.17;;;11.05;;
28836;SDS011;50669;50.982;11.022;2023-01-29T00:42:03;20.77;;;10.93;;
28836;SDS011;50669;50.982;11.022;2023-01-29T00:44:50;21.52;;;12.25;;
28836;SDS011;50669;50.982;11.022;2023-01-29T00:47:24;20.15;;;10.38;;
28836;SDS011;50669;50.982;11.022;2023-01-29T00:49:59;21.10;;;10.63;;
28836;SDS011;50669;50.982;11.022;2023-01-29T00:52:29;18.83;;;10.10;;
28836;SDS011;50669;50.982;11.022;2023-01-29T00:54:55;21.77;;;10.65;;
28836;SDS011;50669;50.982;11.022;2023-01-29T00:57:23;19.45;;;9.95;;
28836;SDS011;50669;50.982;11.022;2023-01-29T00:59:50;23.75;;;10.65;;
28836;SDS011;50669;50.982;11.022;2023-01-29T01:02:22;19.47;;;10.20;;
28836;SDS011;50669;50.982;11.022;2023-01-29T01:05:07;20.35;;;10.48;;
28836;SDS011;50669;50.982;11.022;2023-01-29T01:07:38;17.77;;;9.88;;
28836;SDS011;50669;50.982;11.022;2023-01-29T01:10:10;18.83;;;9.73;;
28836;SDS011;50669;50.982;11.022;2023-01-29T01:12:52;19.83;;;9.70;;
28836;SDS011;50669;50.982;11.022;2023-01-29T01:15:23;16.02;;;9.10;;
28836;SDS011;50669;50.982;11.022;2023-01-29T01:17:54;18.05;;;9.50;;
28836;SDS011;50669;50.982;11.022;2023-01-29T01:20:22;17.73;;;9.38;;
28836;SDS011;50669;50.982;11.022;2023-01-29T01:22:53;20.67;;;10.85;;
28836;SDS011;50669;50.982;11.022;2023-01-29T01:25:21;20.55;;;9.52;;
28836;SDS011;50669;50.982;11.022;2023-01-29T01:27:52;20.88;;;10.10;;
28836;SDS011;50669;50.982;11.022;2023-01-29T01:30:19;18.50;;;9.50;;
28836;SDS011;50669;50.982;11.022;2023-01-29T01:32:45;19.02;;;10.77;;
28836;SDS011;50669;50.982;11.022;2023-01-29T01:35:11;19.98;;;10.20;;
28836;SDS011;50669;50.982;11.022;2023-01-29T01:37:38;20.75;;;10.85;;
28836;SDS011;50669;50.982;11.022;2023-01-29T01:40:09;18.75;;;10.27;;
28836;SDS011;50669;50.982;11.022;2023-01-29T01:42:45;19.77;;;9.95;;
28836;SDS011;50669;50.982;11.022;2023-01-29T01:47:55;18.48;;;10.27;;
28836;SDS011;50669;50.982;11.022;2023-01-29T01:50:29;20.00;;;10.00;;
28836;SDS011;50669;50.982;11.022;2023-01-29T01:52:57;21.65;;;9.73;;
28836;SDS011;50669;50.982;11.022;2023-01-29T01:55:28;17.92;;;9.98;;
28836;SDS011;50669;50.982;11.022;2023-01-29T01:58:02;18.17;;;8.95;;
28836;SDS011;50669;50.982;11.022;2023-01-29T02:00:33;18.25;;;9.63;;
28836;SDS011;50669;50.982;11.022;2023-01-29T02:02:59;16.75;;;8.95;;
28836;SDS011;50669;50.982;11.022;2023-01-29T02:05:44;17.17;;;9.45;;
28836;SDS011;50669;50.982;11.022;2023-01-29T02:08:35;20.10;;;9.43;;
28836;SDS011;50669;50.982;11.022;2023-01-29T02:11:25;14.75;;;8.65;;
28836;SDS011;50669;50.982;11.022;2023-01-29T02:13:51;16.20;;;8.70;;
28836;SDS011;50669;50.982;11.022;2023-01-29T02:16:18;17.15;;;8.85;;
28836;SDS011;50669;50.982;11.022;2023-01-29T02:18:49;17.40;;;9.25;;
28836;SDS011;50669;50.982;11.022;2023-01-29T02:29:30;20.25;;;9.05;;
28836;SDS011;50669;50.982;11.022;2023-01-29T02:32:22;16.35;;;8.27;;
28836;SDS011;50669;50.982;11.022;2023-01-29T02:35:05;16.42;;;8.93;;
28836;SDS011;50669;50.982;11.022;2023-01-29T02:38:27;15.10;;;7.60;;
28836;SDS011;50669;50.982;11.022;2023-01-29T02:41:07;16.80;;;7.85;;
28836;SDS011;50669;50.982;11.022;2023-01-29T02:48:42;16.52;;;8.32;;
28836;SDS011;50669;50.982;11.022;2023-01-29T02:51:29;14.45;;;7.93;;
28836;SDS011;50669;50.982;11.022;2023-01-29T02:54:03;19.02;;;8.13;;
28836;SDS011;50669;50.982;11.022;2023-01-29T02:56:38;12.90;;;7.65;;
28836;SDS011;50669;50.982;11.022;2023-01-29T02:59:20;16.60;;;7.55;;
28836;SDS011;50669;50.982;11.022;2023-01-29T03:01:55;13.40;;;7.57;;
28836;SDS011;50669;50.982;11.022;2023-01-29T03:04:30;15.02;;;7.85;;
28836;SDS011;50669;50.982;11.022;2023-01-29T03:07:03;16.45;;;8.25;;
28836;SDS011;50669;50.982;11.022;2023-01-29T03:09:36;16.38;;;7.90;;
28836;SDS011;50669;50.982;11.022;2023-01-29T03:12:08;18.15;;;8.43;;
28836;SDS011;50669;50.982;11.022;2023-01-29T03:14:53;14.57;;;8.02;;
28836;SDS011;50669;50.982;11.022;2023-01-29T03:20:21;14.07;;;7.82;;
28836;SDS011;50669;50.982;11.022;2023-01-29T03:22:55;15.05;;;8.10;;
28836;SDS011;50669;50.982;11.022;2023-01-29T03:25:26;15.93;;;8.63;;
28836;SDS011;50669;50.982;11.022;2023-01-29T03:28:12;14.63;;;8.23;;
28836;SDS011;50669;50.982;11.022;2023-01-29T03:31:03;17.73;;;8.07;;
28836;SDS011;50669;50.982;11.022;2023-01-29T03:36:17;16.23;;;8.45;;
28836;SDS011;50669;50.982;11.022;2023-01-29T03:39:02;19.35;;;8.32;;
28836;SDS011;50669;50.982;11.022;2023-01-29T03:41:33;17.02;;;8.25;;
28836;SDS011;50669;50.982;11.022;2023-01-29T03:46:57;16.33;;;8.55;;
28836;SDS011;50669;50.982;11.022;2023-01-29T03:52:35;15.73;;;7.75;;
28836;SDS011;50669;50.982;11.022;2023-01-29T03:58:15;16.48;;;7.70;;
28836;SDS011;50669;50.982;11.022;2023-01-29T04:00:57;17.08;;;9.38;;
28836;SDS011;50669;50.982;11.022;2023-01-29T04:03:42;16.65;;;7.97;;
28836;SDS011;50669;50.982;11.022;2023-01-29T04:06:17;15.63;;;7.70;;
28836;SDS011;50669;50.982;11.022;2023-01-29T04:11:23;16.65;;;9.02;;
28836;SDS011;50669;50.982;11.022;2023-01-29T04:13:50;18.40;;;8.07;;
28836;SDS011;50669;50.982;11.022;2023-01-29T04:16:21;13.93;;;7.47;;
28836;SDS011;50669;50.982;11.022;2023-01-29T04:18:54;17.30;;;8.25;;
28836;SDS011;50669;50.982;11.022;2023-01-29T04:21:23;13.40;;;7.35;;
28836;SDS011;50669;50.982;11.022;2023-01-29T04:23:49;13.30;;;8.00;;
28836;SDS011;50669;50.982;11.022;2023-01-29T04:29:19;13.75;;;7.75;;
28836;SDS011;50669;50.982;11.022;2023-01-29T04:37:49;18.52;;;8.88;;
28836;SDS011;50669;50.982;11.022;2023-01-29T04:43:32;13.43;;;7.78;;
28836;SDS011;50669;50.982;11.022;2023-01-29T04:56:51;15.80;;;8.30;;
28836;SDS011;50669;50.982;11.022;2023-01-29T04:59:32;15.57;;;8.63;;
28836;SDS011;50669;50.982;11.022;2023-01-29T05:02:03;15.73;;;7.80;;
28836;SDS011;50669;50.982;11.022;2023-01-29T05:04:30;16.17;;;7.88;;
28836;SDS011;50669;50.982;11.022;2023-01-29T05:07:05;16.48;;;8.20;;
28836;SDS011;50669;50.982;11.022;2023-01-29T05:09:33;15.63;;;8.02;;
28836;SDS011;50669;50.982;11.022;2023-01-29T05:12:06;14.75;;;8.02;;
28836;SDS011;50669;50.982;11.022;2023-01-29T05:14:36;16.38;;;8.23;;
28836;SDS011;50669;50.982;11.022;2023-01-29T05:17:09;17.57;;;8.53;;
28836;SDS011;50669;50.982;11.022;2023-01-29T05:19:42;15.20;;;8.02;;
28836;SDS011;50669;50.982;11.022;2023-01-29T05:22:08;19.02;;;9.07;;
28836;SDS011;50669;50.982;11.022;2023-01-29T05:24:36;17.58;;;9.10;;
28836;SDS011;50669;50.982;11.022;2023-01-29T05:27:02;15.57;;;8.23;;
28836;SDS011;50669;50.982;11.022;2023-01-29T05:29:47;18.38;;;8.85;;
28836;SDS011;50669;50.982;11.022;2023-01-29T05:32:13;15.82;;;8.15;;
28836;SDS011;50669;50.982;11.022;2023-01-29T05:34:40;17.73;;;8.02;;
28836;SDS011;50669;50.982;11.022;2023-01-29T05:37:05;15.73;;;8.10;;
28836;SDS011;50669;50.982;11.022;2023-01-29T05:39:31;16.70;;;9.00;;
28836;SDS011;50669;50.982;11.022;2023-01-29T05:41:57;17.30;;;8.65;;
28836;SDS011;50669;50.982;11.022;2023-01-29T05:44:23;16.10;;;8.15;;
28836;SDS011;50669;50.982;11.022;2023-01-29T05:46:49;18.27;;;9.60;;
28836;SDS011;50669;50.982;11.022;2023-01-29T05:49:16;16.90;;;8.55;;
28836;SDS011;50669;50.982;11.022;2023-01-29T05:51:42;18.73;;;8.60;;
28836;SDS011;50669;50.982;11.022;2023-01-29T05:54:10;20.50;;;8.45;;
28836;SDS011;50669;50.982;11.022;2023-01-29T05:56:36;14.68;;;8.20;;
28836;SDS011;50669;50.982;11.022;2023-01-29T05:59:04;15.25;;;7.60;;
28836;SDS011;50669;50.982;11.022;2023-01-29T06:01:31;14.60;;;8.40;;
28836;SDS011;50669;50.982;11.022;2023-01-29T06:03:57;14.82;;;8.48;;
28836;SDS011;50669;50.982;11.022;2023-01-29T06:06:25;16.88;;;8.52;;
28836;SDS011;50669;50.982;11.022;2023-01-29T06:08:50;17.88;;;9.35;;
28836;SDS011;50669;50.982;11.022;2023-01-29T06:11:16;18.50;;;8.85;;
28836;SDS011;50669;50.982;11.022;2023-01-29T06:13:45;17.15;;;9.20;;
28836;SDS011;50669;50.982;11.022;2023-01-29T06:16:12;15.65;;;8.82;;
28836;SDS011;50669;50.982;11.022;2023-01-29T06:18:41;16.85;;;8.80;;
28836;SDS011;50669;50.982;11.022;2023-01-29T06:21:10;15.38;;;7.53;;
28836;SDS011;50669;50.982;11.022;2023-01-29T06:23:40;15.32;;;8.48;;
28836;SDS011;50669;50.982;11.022;2023-01-29T06:26:07;17.73;;;8.80;;
28836;SDS011;50669;50.982;11.022;2023-01-29T06:28:40;11.93;;;6.13;;
28836;SDS011;50669;50.982;11.022;2023-01-29T06:31:08;14.73;;;8.00;;
28836;SDS011;50669;50.982;11.022;2023-01-29T06:33:35;16.63;;;8.13;;
28836;SDS011;50669;50.982;11.022;2023-01-29T06:36:02;16.38;;;8.30;;
28836;SDS011;50669;50.982;11.022;2023-01-29T06:38:31;16.35;;;8.65;;
28836;SDS011;50669;50.982;11.022;2023-01-29T06:40:57;15.32;;;8.77;;
28836;SDS011;50669;50.982;11.022;2023-01-29T06:43:32;15.43;;;8.48;;
28836;SDS011;50669;50.982;11.022;2023-01-29T06:45:57;17.83;;;8.88;;
28836;SDS011;50669;50.982;11.022;2023-01-29T06:48:23;18.05;;;8.23;;
28836;SDS011;50669;50.982;11.022;2023-01-29T06:50:49;16.27;;;8.35;;
28836;SDS011;50669;50.982;11.022;2023-01-29T06:53:16;17.95;;;8.75;;
28836;SDS011;50669;50.982;11.022;2023-01-29T06:55:42;21.05;;;12.75;;
28836;SDS011;50669;50.982;11.022;2023-01-29T07:00:42;19.58;;;9.60;;
28836;SDS011;50669;50.982;11.022;2023-01-29T07:03:08;18.25;;;9.23;;
28836;SDS011;50669;50.982;11.022;2023-01-29T07:05:38;18.25;;;8.73;;
28836;SDS011;50669;50.982;11.022;2023-01-29T07:08:04;15.90;;;8.55;;
28836;SDS011;50669;50.982;11.022;2023-01-29T07:10:30;15.43;;;8.68;;
28836;SDS011;50669;50.982;11.022;2023-01-29T07:12:57;17.52;;;8.52;;
28836;SDS011;50669;50.982;11.022;2023-01-29T07:15:26;20.00;;;8.77;;
28836;SDS011;50669;50.982;11.022;2023-01-29T07:17:58;18.98;;;9.55;;
28836;SDS011;50669;50.982;11.022;2023-01-29T07:20:26;18.85;;;9.10;;
28836;SDS011;50669;50.982;11.022;2023-01-29T07:22:52;17.30;;;9.15;;
28836;SDS011;50669;50.982;11.022;2023-01-29T07:25:19;16.77;;;8.18;;
28836;SDS011;50669;50.982;11.022;2023-01-29T07:27:50;19.85;;;9.43;;
28836;SDS011;50669;50.982;11.022;2023-01-29T07:30:16;18.60;;;10.40;;
28836;SDS011;50669;50.982;11.022;2023-01-29T07:32:42;16.67;;;8.85;;
28836;SDS011;50669;50.982;11.022;2023-01-29T07:35:08;17.73;;;9.10;;
28836;SDS011;50669;50.982;11.022;2023-01-29T07:37:36;19.50;;;9.82;;
28836;SDS011;50669;50.982;11.022;2023-01-29T07:40:02;17.67;;;9.50;;
28836;SDS011;50669;50.982;11.022;2023-01-29T07:42:34;19.08;;;9.18;;
28836;SDS011;50669;50.982;11.022;2023-01-29T07:45:00;17.92;;;8.90;;
28836;SDS011;50669;50.982;11.022;2023-01-29T07:47:25;18.63;;;9.57;;
28836;SDS011;50669;50.982;11.022;2023-01-29T07:49:51;16.80;;;10.13;;
28836;SDS011;50669;50.982;11.022;2023-01-29T07:52:17;17.67;;;9.93;;
28836;SDS011;50669;50.982;11.022;2023-01-29T07:54:42;17.75;;;8.38;;
28836;SDS011;50669;50.982;11.022;2023-01-29T07:57:08;18.13;;;9.43;;
28836;SDS011;50669;50.982;11.022;2023-01-29T07:59:36;16.00;;;9.30;;
28836;SDS011;50669;50.982;11.022;2023-01-29T08:02:01;17.00;;;8.27;;
28836;SDS011;50669;50.982;11.022;2023-01-29T08:04:29;16.10;;;9.20;;
28836;SDS011;50669;50.982;11.022;2023-01-29T08:06:55;17.58;;;9.40;;
28836;SDS011;50669;50.982;11.022;2023-01-29T08:09:20;19.17;;;8.85;;
28836;SDS011;50669;50.982;11.022;2023-01-29T08:11:46;19.38;;;10.02;;
28836;SDS011;50669;50.982;11.022;2023-01-29T08:14:12;19.35;;;10.15;;
28836;SDS011;50669;50.982;11.022;2023-01-29T08:16:37;18.38;;;10.05;;
28836;SDS011;50669;50.982;11.022;2023-01-29T08:19:03;20.42;;;10.77;;
28836;SDS011;50669;50.982;11.022;2023-01-29T08:21:28;20.88;;;10.00;;
28836;SDS011;50669;50.982;11.022;2023-01-29T08:23:56;18.75;;;9.70;;
28836;SDS011;50669;50.982;11.022;2023-01-29T08:26:22;19.55;;;9.60;;
28836;SDS011;50669;50.982;11.022;2023-01-29T08:28:52;16.73;;;8.80;;
28836;SDS011;50669;50.982;11.022;2023-01-29T08:31:18;21.35;;;9.85;;
28836;SDS011;50669;50.982;11.022;2023-01-29T08:33:47;16.92;;;9.38;;
28836;SDS011;50669;50.982;11.022;2023-01-29T08:36:13;18.80;;;9.93;;
28836;SDS011;50669;50.982;11.022;2023-01-29T08:38:39;19.70;;;9.55;;
28836;SDS011;50669;50.982;11.022;2023-01-29T08:41:04;19.98;;;10.18;;
28836;SDS011;50669;50.982;11.022;2023-01-29T08:43:31;18.35;;;9.57;;
28836;SDS011;50669;50.982;11.022;2023-01-29T08:45:56;19.58;;;10.07;;
28836;SDS011;50669;50.982;11.022;2023-01-29T08:48:22;15.73;;;9.10;;
28836;SDS011;50669;50.982;11.022;2023-01-29T08:50:49;17.02;;;9.10;;
28836;SDS011;50669;50.982;11.022;2023-01-29T08:53:15;23.25;;;10.93;;
28836;SDS011;50669;50.982;11.022;2023-01-29T08:55:40;20.77;;;9.02;;
28836;SDS011;50669;50.982;11.022;2023-01-29T08:58:07;16.95;;;9.40;;
28836;SDS011;50669;50.982;11.022;2023-01-29T09:00:37;21.05;;;10.07;;
28836;SDS011;50669;50.982;11.022;2023-01-29T09:03:02;15.95;;;9.52;;
28836;SDS011;50669;50.982;11.022;2023-01-29T09:05:32;19.20;;;9.90;;
28836;SDS011;50669;50.982;11.022;2023-01-29T09:08:01;19.23;;;10.55;;
28836;SDS011;50669;50.982;11.022;2023-01-29T09:10:28;17.70;;;9.77;;
28836;SDS011;50669;50.982;11.022;2023-01-29T09:12:53;17.67;;;10.05;;
28836;SDS011;50669;50.982;11.022;2023-01-29T09:15:22;18.33;;;9.63;;
28836;SDS011;50669;50.982;11.022;2023-01-29T09:17:47;14.73;;;9.13;;
28836;SDS011;50669;50.982;11.022;2023-01-29T09:20:13;17.33;;;10.35;;
28836;SDS011;50669;50.982;11.022;2023-01-29T09:22:39;23.85;;;10.90;;
28836;SDS011;50669;50.982;11.022;2023-01-29T09:25:07;19.75;;;9.95;;
28836;SDS011;50669;50.982;11.022;2023-01-29T09:27:33;17.02;;;9.70;;
28836;SDS011;50669;50.982;11.022;2023-01-29T09:30:01;18.67;;;10.20;;
28836;SDS011;50669;50.982;11.022;2023-01-29T09:32:31;16.48;;;10.30;;
28836;SDS011;50669;50.982;11.022;2023-01-29T09:34:58;19.65;;;10.07;;
28836;SDS011;50669;50.982;11.022;2023-01-29T09:37:23;16.98;;;10.15;;
28836;SDS011;50669;50.982;11.022;2023-01-29T09:39:49;18.35;;;9.77;;
28836;SDS011;50669;50.982;11.022;2023-01-29T09:47:40;14.95;;;9.48;;
28836;SDS011;50669;50.982;11.022;2023-01-29T09:50:14;20.70;;;9.70;;
28836;SDS011;50669;50.982;11.022;2023-01-29T09:53:10;16.13;;;9.40;;
28836;SDS011;50669;50.982;11.022;2023-01-29T09:55:45;15.88;;;9.43;;
28836;SDS011;50669;50.982;11.022;2023-01-29T09:58:17;23.23;;;10.02;;
28836;SDS011;50669;50.982;11.022;2023-01-29T10:06:24;16.13;;;9.95;;
28836;SDS011;50669;50.982;11.022;2023-01-29T10:25:43;18.60;;;10.02;;
28836;SDS011;50669;50.982;11.022;2023-01-29T10:28:16;18.17;;;10.20;;
28836;SDS011;50669;50.982;11.022;2023-01-29T10:30:53;18.58;;;10.82;;
28836;SDS011;50669;50.982;11.022;2023-01-29T10:33:28;18.77;;;10.57;;
28836;SDS011;50669;50.982;11.022;2023-01-29T10:36:03;20.65;;;10.55;;
28836;SDS011;50669;50.982;11.022;2023-01-29T10:38:43;19.90;;;10.65;;
28836;SDS011;50669;50.982;11.022;2023-01-29T10:49:06;19.15;;;10.43;;
28836;SDS011;50669;50.982;11.022;2023-01-29T11:00:25;18.70;;;10.48;;
28836;SDS011;50669;50.982;11.022;2023-01-29T11:05:37;18.63;;;10.32;;
28836;SDS011;50669;50.982;11.022;2023-01-29T11:08:12;21.40;;;12.02;;
28836;SDS011;50669;50.982;11.022;2023-01-29T11:10:45;20.23;;;11.77;;
28836;SDS011;50669;50.982;11.022;2023-01-29T11:13:38;18.15;;;11.27;;
28836;SDS011;50669;50.982;11.022;2023-01-29T11:16:11;17.70;;;10.68;;
28836;SDS011;50669;50.982;11.022;2023-01-29T11:18:50;20.17;;;10.63;;
28836;SDS011;50669;50.982;11.022;2023-01-29T11:21:22;20.60;;;11.32;;
28836;SDS011;50669;50.982;11.022;2023-01-29T11:23:49;17.98;;;10.68;;
28836;SDS011;50669;50.982;11.022;2023-01-29T11:26:28;17.60;;;9.90;;
28836;SDS011;50669;50.982;11.022;2023-01-29T11:28:57;20.85;;;11.23;;
28836;SDS011;50669;50.982;11.022;2023-01-29T11:34:01;18.65;;;10.32;;
28836;SDS011;50669;50.982;11.022;2023-01-29T11:36:37;19.42;;;10.82;;
28836;SDS011;50669;50.982;11.022;2023-01-29T11:41:39;17.17;;;9.73;;
28836;SDS011;50669;50.982;11.022;2023-01-29T11:44:42;21.55;;;10.85;;
28836;SDS011;50669;50.982;11.022;2023-01-29T11:52:42;18.05;;;11.02;;
28836;SDS011;50669;50.982;11.022;2023-01-29T11:58:03;17.92;;;10.60;;
28836;SDS011;50669;50.982;11.022;2023-01-29T12:00:31;16.85;;;9.98;;
28836;SDS011;50669;50.982;11.022;2023-01-29T12:05:52;17.17;;;10.90;;
28836;SDS011;50669;50.982;11.022;2023-01-29T12:08:23;20.15;;;11.30;;
28836;SDS011;50669;50.982;11.022;2023-01-29T12:10:50;18.00;;;9.98;;
28836;SDS011;50669;50.982;11.022;2023-01-29T12:15:46;18.15;;;10.45;;
28836;SDS011;50669;50.982;11.022;2023-01-29T12:18:32;18.60;;;10.35;;
28836;SDS011;50669;50.982;11.022;2023-01-29T12:21:16;15.80;;;9.85;;
28836;SDS011;50669;50.982;11.022;2023-01-29T12:29:12;19.85;;;10.52;;
28836;SDS011;50669;50.982;11.022;2023-01-29T12:34:58;18.08;;;9.10;;
28836;SDS011;50669;50.982;11.022;2023-01-29T12:40:09;13.38;;;8.98;;
28836;SDS011;50669;50.982;11.022;2023-01-29T12:42:39;15.40;;;9.45;;
28836;SDS011;50669;50.982;11.022;2023-01-29T12:45:08;13.73;;;8.40;;
28836;SDS011;50669;50.982;11.022;2023-01-29T12:47:41;13.88;;;8.70;;
28836;SDS011;50669;50.982;11.022;2023-01-29T12:52:49;13.82;;;8.23;;
28836;SDS011;50669;50.982;11.022;2023-01-29T12:55:34;11.57;;;8.52;;
28836;SDS011;50669;50.982;11.022;2023-01-29T12:58:14;12.95;;;7.93;;
28836;SDS011;50669;50.982;11.022;2023-01-29T13:00:45;12.18;;;7.82;;
28836;SDS011;50669;50.982;11.022;2023-01-29T13:05:49;14.90;;;7.68;;
28836;SDS011;50669;50.982;11.022;2023-01-29T13:10:51;12.35;;;8.07;;
28836;SDS011;50669;50.982;11.022;2023-01-29T13:16:02;18.35;;;9.35;;
28836;SDS011;50669;50.982;11.022;2023-01-29T13:21:21;13.20;;;8.48;;
28836;SDS011;50669;50.982;11.022;2023-01-29T13:24:02;16.15;;;8.77;;
28836;SDS011;50669;50.982;11.022;2023-01-29T13:26:34;14.90;;;8.38;;
28836;SDS011;50669;50.982;11.022;2023-01-29T13:29:01;14.30;;;8.88;;
28836;SDS011;50669;50.982;11.022;2023-01-29T13:31:47;17.00;;;9.40;;
28836;SDS011;50669;50.982;11.022;2023-01-29T13:34:15;16.33;;;8.80;;
28836;SDS011;50669;50.982;11.022;2023-01-29T13:36:49;14.25;;;9.07;;
28836;SDS011;50669;50.982;11.022;2023-01-29T13:41:51;15.18;;;8.65;;
28836;SDS011;50669;50.982;11.022;2023-01-29T13:44:19;12.50;;;7.88;;
28836;SDS011;50669;50.982;11.022;2023-01-29T13:46:54;15.13;;;7.95;;
28836;SDS011;50669;50.982;11.022;2023-01-29T13:49:36;14.60;;;8.65;;
28836;SDS011;50669;50.982;11.022;2023-01-29T13:52:20;12.98;;;8.27;;
28836;SDS011;50669;50.982;11.022;2023-01-29T13:54:54;12.93;;;8.23;;
28836;SDS011;50669;50.982;11.022;2023-01-29T13:57:36;16.95;;;8.75;;
28836;SDS011;50669;50.982;11.022;2023-01-29T14:02:41;16.50;;;8.80;;
28836;SDS011;50669;50.982;11.022;2023-01-29T14:07:57;15.18;;;8.18;;
28836;SDS011;50669;50.982;11.022;2023-01-29T14:10:38;13.57;;;7.93;;
28836;SDS011;50669;50.982;11.022;2023-01-29T14:20:50;18.05;;;8.90;;
28836;SDS011;50669;50.982;11.022;2023-01-29T14:26:21;13.45;;;7.85;;
28836;SDS011;50669;50.982;11.022;2023-01-29T14:31:30;14.80;;;7.35;;
28836;SDS011;50669;50.982;11.022;2023-01-29T14:34:02;12.55;;;7.35;;
28836;SDS011;50669;50.982;11.022;2023-01-29T14:36:37;12.77;;;6.95;;
28836;SDS011;50669;50.982;11.022;2023-01-29T14:39:17;13.68;;;7.32;;
28836;SDS011;50669;50.982;11.022;2023-01-29T14:41:46;14.80;;;7.25;;
28836;SDS011;50669;50.982;11.022;2023-01-29T14:52:38;17.88;;;8.57;;
28836;SDS011;50669;50.982;11.022;2023-01-29T14:55:26;14.48;;;7.47;;
28836;SDS011;50669;50.982;11.022;2023-01-29T14:57:53;13.25;;;7.93;;
28836;SDS011;50669;50.982;11.022;2023-01-29T15:03:16;17.58;;;8.65;;
28836;SDS011;50669;50.982;11.022;2023-01-29T15:05:54;15.07;;;7.25;;
28836;SDS011;50669;50.982;11.022;2023-01-29T15:08:31;13.85;;;7.50;;
28836;SDS011;50669;50.982;11.022;2023-01-29T15:11:11;12.20;;;6.80;;
28836;SDS011;50669;50.982;11.022;2023-01-29T15:17:09;15.05;;;7.90;;
28836;SDS011;50669;50.982;11.022;2023-01-29T15:19:47;14.60;;;7.53;;
28836;SDS011;50669;50.982;11.022;2023-01-29T15:24:43;14.05;;;7.22;;
28836;SDS011;50669;50.982;11.022;2023-01-29T15:27:14;16.17;;;7.65;;
28836;SDS011;50669;50.982;11.022;2023-01-29T15:29:51;15.70;;;8.10;;
28836;SDS011;50669;50.982;11.022;2023-01-29T15:32:30;14.00;;;7.55;;
28836;SDS011;50669;50.982;11.022;2023-01-29T15:34:57;13.65;;;7.03;;
28836;SDS011;50669;50.982;11.022;2023-01-29T15:37:31;16.20;;;7.78;;
28836;SDS011;50669;50.982;11.022;2023-01-29T15:39:58;13.77;;;6.97;;
28836;SDS011;50669;50.982;11.022;2023-01-29T15:42:26;14.60;;;7.05;;
28836;SDS011;50669;50.982;11.022;2023-01-29T15:44:52;13.50;;;7.40;;
28836;SDS011;50669;50.982;11.022;2023-01-29T15:47:20;15.43;;;7.63;;
28836;SDS011;50669;50.982;11.022;2023-01-29T15:49:48;14.10;;;7.70;;
28836;SDS011;50669;50.982;11.022;2023-01-29T15:52:19;14.27;;;7.43;;
28836;SDS011;50669;50.982;11.022;2023-01-29T15:54:51;14.10;;;6.97;;
28836;SDS011;50669;50.982;11.022;2023-01-29T15:57:29;15.70;;;7.57;;
28836;SDS011;50669;50.982;11.022;2023-01-29T16:00:16;16.02;;;7.20;;
28836;SDS011;50669;50.982;11.022;2023-01-29T16:02:51;17.02;;;7.70;;
28836;SDS011;50669;50.982;11.022;2023-01-29T16:05:21;14.38;;;7.88;;
28836;SDS011;50669;50.982;11.022;2023-01-29T16:07:50;12.85;;;7.18;;
28836;SDS011;50669;50.982;11.022;2023-01-29T16:10:19;13.43;;;6.97;;
28836;SDS011;50669;50.982;11.022;2023-01-29T16:12:52;13.20;;;7.80;;
28836;SDS011;50669;50.982;11.022;2023-01-29T16:15:34;13.73;;;7.38;;
28836;SDS011;50669;50.982;11.022;2023-01-29T16:18:02;14.70;;;7.63;;
28836;SDS011;50669;50.982;11.022;2023-01-29T16:20:43;15.37;;;7.63;;
28836;SDS011;50669;50.982;11.022;2023-01-29T16:23:20;17.20;;;8.43;;
28836;SDS011;50669;50.982;11.022;2023-01-29T16:25:51;16.42;;;7.70;;
28836;SDS011;50669;50.982;11.022;2023-01-29T16:28:20;13.40;;;7.65;;
28836;SDS011;50669;50.982;11.022;2023-01-29T16:30:46;18.65;;;9.07;;
28836;SDS011;50669;50.982;11.022;2023-01-29T16:33:18;17.17;;;8.68;;
28836;SDS011;50669;50.982;11.022;2023-01-29T16:35:49;19.70;;;9.32;;
28836;SDS011;50669;50.982;11.022;2023-01-29T16:38:22;18.27;;;9.05;;
28836;SDS011;50669;50.982;11.022;2023-01-29T16:44:03;21.45;;;9.27;;
28836;SDS011;50669;50.982;11.022;2023-01-29T16:46:46;18.08;;;9.50;;
28836;SDS011;50669;50.982;11.022;2023-01-29T16:51:56;18.23;;;9.55;;
28836;SDS011;50669;50.982;11.022;2023-01-29T16:54:46;23.25;;;9.70;;
28836;SDS011;50669;50.982;11.022;2023-01-29T16:57:13;17.92;;;8.95;;
28836;SDS011;50669;50.982;11.022;2023-01-29T16:59:42;17.40;;;9.52;;
28836;SDS011;50669;50.982;11.022;2023-01-29T17:02:19;38.55;;;16.13;;
28836;SDS011;50669;50.982;11.022;2023-01-29T17:04:46;19.92;;;9.65;;
28836;SDS011;50669;50.982;11.022;2023-01-29T17:07:15;19.17;;;9.13;;
28836;SDS011;50669;50.982;11.022;2023-01-29T17:09:46;24.05;;;11.88;;
28836;SDS011;50669;50.982;11.022;2023-01-29T17:12:17;22.13;;;10.02;;
28836;SDS011;50669;50.982;11.022;2023-01-29T17:15:02;18.83;;;10.60;;
28836;SDS011;50669;50.982;11.022;2023-01-29T17:17:48;20.52;;;10.88;;
28836;SDS011;50669;50.982;11.022;2023-01-29T17:20:14;21.30;;;10.90;;
28836;SDS011;50669;50.982;11.022;2023-01-29T17:22:43;23.80;;;12.85;;
28836;SDS011;50669;50.982;11.022;2023-01-29T17:25:13;26.00;;;12.35;;
28836;SDS011;50669;50.982;11.022;2023-01-29T17:27:43;24.27;;;11.90;;
28836;SDS011;50669;50.982;11.022;2023-01-29T17:32:47;25.27;;;11.88;;
28836;SDS011;50669;50.982;11.022;2023-01-29T17:35:16;27.08;;;12.93;;
28836;SDS011;50669;50.982;11.022;2023-01-29T17:37:41;24.45;;;12.48;;
28836;SDS011;50669;50.982;11.022;2023-01-29T17:40:20;26.73;;;13.32;;
28836;SDS011;50669;50.982;11.022;2023-01-29T17:43:02;28.65;;;13.65;;
28836;SDS011;50669;50.982;11.022;2023-01-29T17:45:31;25.83;;;13.52;;
28836;SDS011;50669;50.982;11.022;2023-01-29T17:47:57;37.40;;;18.27;;
28836;SDS011;50669;50.982;11.022;2023-01-29T17:50:26;27.63;;;12.73;;
28836;SDS011;50669;50.982;11.022;2023-01-29T17:52:54;29.15;;;12.68;;
28836;SDS011;50669;50.982;11.022;2023-01-29T17:55:19;29.67;;;14.27;;
28836;SDS011;50669;50.982;11.022;2023-01-29T17:57:45;25.45;;;12.60;;